Lawndale, California
Current Conditions -  °F | °C
As of 5:53 PM on Monday 20 Oct 2014 (Local Time) from KHHR Reporting Station
Clear Clear  
Wind Chill: 70°   Ceiling: Unl
Heat Index: 70°   Visibility: 10mi
Dew Point: 61°   Wind: 10mph
Humidity: 73%   Direction: 240°WSW
Pressure: 29.87"   Gusts: NA
Location:  33.9°N, 118.35°W
Report Text: KHHR 210053Z 24009KT 10SM CLR 21/16 A2987 RMK AO2 SLP113 T02110161
Loading
Personal Weather Stations






























Interactive Weather Map
Tropical Storm Tracking
New forecast layout! Learn more

10-Day Weather Forecast

Advertisements
Track Severe Weather on mobile